Terminal Aerodrome Forecast
Issued by NWS

Home | Current Version | Previous Version | Text Only | Print | Product List | Glossary Off
Versions: 1 2 3 4 5 6 7 8 9 10 11 12 13 14 15 16 17 18 19 20 21 22 23 24 25

000
FTUS43 KLOT 152101 AAA
TAFGYY
TAF AMD
KGYY 152101Z 1521/1618 20006KT 1/4SM FG OVC001
     FM160000 28004KT 3/4SM BR OVC003
     FM160100 32007KT 3SM BR OVC005
     FM160300 33009KT P6SM OVC035
     FM160800 33013G21KT P6SM BKN015 OVC025
     FM161600 32010KT P6SM SCT025=

USA.gov is the U.S. government's official web portal to all federal, state and local government web resources and services.